aviador You're here:

GMAG Decoded Metar

in
Report Time2018-06-25 11:00:00
UTC Time2018-06-25 11:50:12
Flight Rules vfr VFR
Wind300° at 10 kt
W.Decomp.*RWY 23: 3.4 kt HW 9.4 kt RCW
W.Rank300° ranks 3
Current wind is above 300° avg. (8.4)
Visibility9999 m
Phenomena:N/A
Clouds:Few 016 Hf
Expected CloudBase > 2,800 ft AGL from Temp-Dew spread
CeilingNone
Temp23°C
Dew Point16°C (65% RH)
AAT21.4°C
QNH1016 hPa
Raw Report
METAR GMAG 251100Z 30010KT 9999 FEW016 23/16 Q1016 NOSIG=

Extra information for GMAG:More info

Social comments